Terminal Aerodrome Forecast
Issued by NWS

Home | Current Version | Previous Version | Text Only | Print | Product List | Glossary On
Versions: 1 2 3 4 5 6 7 8 9 10 11 12 13 14 15 16 17
000
FTUS44 KLZK 222300
TAFBPK
TAF
KBPK 222334Z 2300/2324 17003KT P6SM SCT050
      TEMPO 2305/2309 4SM -TSRA BKN035CB OVC250
     FM231000 36005KT 4SM BR VCTS SCT050CB OVC100
      TEMPO 2314/2318 2SM -TSRA BKN035CB
     FM231800 31008KT P6SM SCT040=

USA.gov is the U.S. government's official web portal to all federal, state and local government web resources and services.